KMEV/MEV METAR and TAF weather

Enter ICAO airport designator
Station Type Date Time Source
KMEV METAR 2021/03/01 22:55 UTC NOAA

KMEV 012255Z AUTO 19013KT 10SM CLR 16/M15 A3006 RMK AO2


Station Type Date Time Source
KMEV Decoded METAR 2021/03/01 22:55 UTC NOAA

Station name not available
Mar 01, 2021 - 05:55 PM EST / 2021.03.01 2255 UTC
Wind: from the S (190 degrees) at 15 MPH (13 KT):0
Visibility: 10 mile(s):0
Sky conditions: clear
Temperature: 60 F (16 C)
Dew Point: 5 F (-15 C)
Relative Humidity: 10%
Pressure (altimeter): 30.06 in. Hg (1017 hPa)
ob: KMEV 012255Z AUTO 19013KT 10SM CLR 16/M15 A3006 RMK AO2
cycle: 23

Station Type Date Time Source
KMEV TAF 2021/03/01 18:21 UTC NOAA

TAF KMEV 011720Z 0118/0218 00000KT P6SM SKC
FM012000 19010G20KT P6SM FEW250
FM020400 00000KT P6SM SCT200

Example: see airport list